Besiktas Bosphorus — TCOG3 — position and weather

sailwx.info

Track history (hours):
 
Tides and Currents Weather Stations Pressure Air Temp Water Temp Dewpoint Dewpoint Depression Visibility Wind Speed Wind Dir Waves Ship Positions

Besiktas Bosphorus

Last reported at 2015-Sep-04 02:33 UTC. Time now 2015-Sep-05 10:20 UTC.
Position N 43°16' E 034°15'.

Length 274 m; draft 9.1 m.

Type: Ship (hazmat cat A). MMSI: 271000817.

Date/timePositionNaut miles runAvg speedWind from/ knotsBaromVisibWave heightAir tempDewpointWater temp
2015-Sep-04 02:33N 43°16' E 034°15'1413.7
2015-Sep-04 01:34N 43°22' E 034°31'1513.8
2015-Sep-04 00:28N 43°29' E 034°50'1313.9
2015-Sep-03 23:33N 43°35' E 035°05'1414.0
2015-Sep-03 22:33N 43°41' E 035°23'1414.4
2015-Sep-03 21:34N 43°48' E 035°40'1414.2
2015-Sep-03 20:34N 43°55' E 035°57'1414.3
2015-Sep-03 19:34N 44°01' E 036°16'1414.2
2015-Sep-03 18:34N 44°07' E 036°33'1414.3
2015-Sep-03 17:33N 44°14' E 036°51'1414.1
2015-Sep-03 16:34N 44°20' E 037°08'1414.4
2015-Sep-03 15:33N 44°27' E 037°26'1313.2
2015-Sep-03 14:33N 44°35' E 037°41'3 2.8
2015-Sep-03 13:33N 44°37' E 037°43'1 0.6
2015-Sep-03 12:33N 44°37' E 037°43'0 0.2
2015-Sep-03 11:32N 44°37' E 037°43'3 2.6
2015-Sep-03 10:22N 44°37' E 037°39'1 0.6
2015-Sep-03 09:25N 44°37' E 037°39'0 0.0
2015-Sep-03 08:22N 44°37' E 037°39'0 0.0
2015-Sep-03 07:31N 44°37' E 037°39'0 0.0
2015-Sep-03 06:28N 44°37' E 037°39'0 0.0
2015-Sep-03 05:28N 44°37' E 037°39'0 0.1
2015-Sep-03 03:13N 44°37' E 037°40'0 0.0
2015-Sep-02 16:07N 44°37' E 037°40'0 0.0
2015-Sep-02 15:22N 44°37' E 037°40'0 0.1
2015-Sep-02 14:31N 44°37' E 037°40'2 1.9
2015-Sep-02 13:33N 44°36' E 037°42'3 2.6
2015-Sep-02 12:33N 44°35' E 037°45'8 7.0
2015-Sep-02 11:28N 44°34' E 037°56'0 0.1
2015-Sep-02 10:31N 44°34' E 037°55'0 0.0
2015-Sep-02 09:31N 44°34' E 037°55'0 0.0
2015-Sep-02 03:31N 44°34' E 037°55'0 0.0
2015-Sep-02 02:31N 44°34' E 037°55'0 0.1
2015-Sep-02 01:31N 44°34' E 037°55'0 0.1
2015-Sep-02 00:31N 44°34' E 037°56'0 0.0
2015-Sep-01 23:31N 44°34' E 037°56'0 0.0
2015-Sep-01 22:31N 44°34' E 037°55'0 0.0
2015-Sep-01 21:31N 44°34' E 037°55'0 0.0
2015-Sep-01 20:31N 44°34' E 037°56'0 0.0
2015-Sep-01 19:31N 44°34' E 037°56'0 0.1
2015-Sep-01 18:33N 44°34' E 037°55'8 7.8
2015-Sep-01 17:33N 44°35' E 037°45'1 0.9
2015-Sep-01 16:34N 44°35' E 037°43'3 2.6
2015-Sep-01 15:34N 44°33' E 037°41'1212.3
2015-Sep-01 14:33N 44°24' E 037°29'1514.7
2015-Sep-01 13:33N 44°17' E 037°11'1515.0
2015-Sep-01 12:33N 44°10' E 036°53'1515.0
2015-Sep-01 11:33N 44°03' E 036°34'1515.1
2015-Sep-01 10:33N 43°57' E 036°15'1515.0
2015-Sep-01 09:33N 43°50' E 035°57'1515.1
2015-Sep-01 08:33N 43°43' E 035°38'1515.1
2015-Sep-01 07:33N 43°36' E 035°20'1515.2
2015-Sep-01 06:33N 43°29' E 035°01'1514.9
2015-Sep-01 05:33N 43°22' E 034°43'1514.7
2015-Sep-01 04:33N 43°18' E 034°23'1514.8
2015-Sep-01 03:34N 43°12' E 034°05'2015.1
2015-Sep-01 02:16N 43°05' E 033°40'24213.5
2015-Aug-31 08:20N 41°02' E 029°00'6 7.9
2015-Aug-31 07:32N 40°56' E 028°57'  
2015-Aug-28 12:27N 37°46' E 024°23'1414.2
2015-Aug-28 11:29N 37°36' E 024°11'451 9.1
2015-Aug-26 10:06N 36°20' E 014°55'814.4
2015-Aug-26 09:33N 36°22' E 014°46'1514.6
2015-Aug-26 08:33N 36°26' E 014°28'1514.7
2015-Aug-26 07:33N 36°29' E 014°10'1514.7
2015-Aug-26 06:33N 36°32' E 013°52'1515.1
2015-Aug-26 05:33N 36°36' E 013°34'1515.3
2015-Aug-26 04:33N 36°39' E 013°16'1615.7
2015-Aug-26 03:33N 36°42' E 012°56'1615.8
2015-Aug-26 02:33N 36°46' E 012°37'1615.5
2015-Aug-26 01:33N 36°53' E 012°20'1515.2
2015-Aug-26 00:33N 37°00' E 012°03'1515.0
2015-Aug-25 23:33N 37°07' E 011°46'1614.9
2015-Aug-25 22:28N 37°15' E 011°28'1415.2
2015-Aug-25 21:33N 37°21' E 011°13'1615.6
2015-Aug-25 20:33N 37°26' E 010°54'1615.8
2015-Aug-25 19:33N 37°30' E 010°35'1615.6
2015-Aug-25 18:30N 37°34' E 010°15'  
Track history (hours):
 
Tides and Currents Weather Stations Pressure Air Temp Water Temp Dewpoint Dewpoint Depression Visibility Wind Speed Wind Dir Waves Ship Positions

Besiktas Bosphorus

Last reported at 2015-Sep-04 02:33 UTC. Time now 2015-Sep-05 10:20 UTC.
Position N 43°16' E 034°15'.

Length 274 m; draft 9.1 m.

Type: Ship (hazmat cat A). MMSI: 271000817.

Date/timePositionNaut miles runAvg speedWind from/ knotsBaromVisibWave heightAir tempDewpointWater temp
2015-Sep-04 02:33N 43°16' E 034°15'1413.7
2015-Sep-04 01:34N 43°22' E 034°31'1513.8
2015-Sep-04 00:28N 43°29' E 034°50'1313.9
2015-Sep-03 23:33N 43°35' E 035°05'1414.0
2015-Sep-03 22:33N 43°41' E 035°23'1414.4
2015-Sep-03 21:34N 43°48' E 035°40'1414.2
2015-Sep-03 20:34N 43°55' E 035°57'1414.3
2015-Sep-03 19:34N 44°01' E 036°16'1414.2
2015-Sep-03 18:34N 44°07' E 036°33'1414.3
2015-Sep-03 17:33N 44°14' E 036°51'1414.1
2015-Sep-03 16:34N 44°20' E 037°08'1414.4
2015-Sep-03 15:33N 44°27' E 037°26'1313.2
2015-Sep-03 14:33N 44°35' E 037°41'3 2.8
2015-Sep-03 13:33N 44°37' E 037°43'1 0.6
2015-Sep-03 12:33N 44°37' E 037°43'0 0.2
2015-Sep-03 11:32N 44°37' E 037°43'3 2.6
2015-Sep-03 10:22N 44°37' E 037°39'1 0.6
2015-Sep-03 09:25N 44°37' E 037°39'0 0.0
2015-Sep-03 08:22N 44°37' E 037°39'0 0.0
2015-Sep-03 07:31N 44°37' E 037°39'0 0.0
2015-Sep-03 06:28N 44°37' E 037°39'0 0.0
2015-Sep-03 05:28N 44°37' E 037°39'0 0.1
2015-Sep-03 03:13N 44°37' E 037°40'0 0.0
2015-Sep-02 16:07N 44°37' E 037°40'0 0.0
2015-Sep-02 15:22N 44°37' E 037°40'0 0.1
2015-Sep-02 14:31N 44°37' E 037°40'2 1.9
2015-Sep-02 13:33N 44°36' E 037°42'3 2.6
2015-Sep-02 12:33N 44°35' E 037°45'8 7.0
2015-Sep-02 11:28N 44°34' E 037°56'0 0.1
2015-Sep-02 10:31N 44°34' E 037°55'0 0.0
2015-Sep-02 09:31N 44°34' E 037°55'0 0.0
2015-Sep-02 03:31N 44°34' E 037°55'0 0.0
2015-Sep-02 02:31N 44°34' E 037°55'0 0.1
2015-Sep-02 01:31N 44°34' E 037°55'0 0.1
2015-Sep-02 00:31N 44°34' E 037°56'0 0.0
2015-Sep-01 23:31N 44°34' E 037°56'0 0.0
2015-Sep-01 22:31N 44°34' E 037°55'0 0.0
2015-Sep-01 21:31N 44°34' E 037°55'0 0.0
2015-Sep-01 20:31N 44°34' E 037°56'0 0.0
2015-Sep-01 19:31N 44°34' E 037°56'0 0.1
2015-Sep-01 18:33N 44°34' E 037°55'8 7.8
2015-Sep-01 17:33N 44°35' E 037°45'1 0.9
2015-Sep-01 16:34N 44°35' E 037°43'3 2.6
2015-Sep-01 15:34N 44°33' E 037°41'1212.3
2015-Sep-01 14:33N 44°24' E 037°29'1514.7
2015-Sep-01 13:33N 44°17' E 037°11'1515.0
2015-Sep-01 12:33N 44°10' E 036°53'1515.0
2015-Sep-01 11:33N 44°03' E 036°34'1515.1
2015-Sep-01 10:33N 43°57' E 036°15'1515.0
2015-Sep-01 09:33N 43°50' E 035°57'1515.1
2015-Sep-01 08:33N 43°43' E 035°38'1515.1
2015-Sep-01 07:33N 43°36' E 035°20'1515.2
2015-Sep-01 06:33N 43°29' E 035°01'1514.9
2015-Sep-01 05:33N 43°22' E 034°43'1514.7
2015-Sep-01 04:33N 43°18' E 034°23'1514.8
2015-Sep-01 03:34N 43°12' E 034°05'2015.1
2015-Sep-01 02:16N 43°05' E 033°40'24213.5
2015-Aug-31 08:20N 41°02' E 029°00'6 7.9
2015-Aug-31 07:32N 40°56' E 028°57'  
2015-Aug-28 12:27N 37°46' E 024°23'1414.2
2015-Aug-28 11:29N 37°36' E 024°11'451 9.1
2015-Aug-26 10:06N 36°20' E 014°55'814.4
2015-Aug-26 09:33N 36°22' E 014°46'1514.6
2015-Aug-26 08:33N 36°26' E 014°28'1514.7
2015-Aug-26 07:33N 36°29' E 014°10'1514.7
2015-Aug-26 06:33N 36°32' E 013°52'1515.1
2015-Aug-26 05:33N 36°36' E 013°34'1515.3
2015-Aug-26 04:33N 36°39' E 013°16'1615.7
2015-Aug-26 03:33N 36°42' E 012°56'1615.8
2015-Aug-26 02:33N 36°46' E 012°37'1615.5
2015-Aug-26 01:33N 36°53' E 012°20'1515.2
2015-Aug-26 00:33N 37°00' E 012°03'1515.0
2015-Aug-25 23:33N 37°07' E 011°46'1614.9
2015-Aug-25 22:28N 37°15' E 011°28'1415.2
2015-Aug-25 21:33N 37°21' E 011°13'1615.6
2015-Aug-25 20:33N 37°26' E 010°54'1615.8
2015-Aug-25 19:33N 37°30' E 010°35'1615.6
2015-Aug-25 18:30N 37°34' E 010°15'  

Dump ship's entire track history